Time,TemperatureF,DewpointF,PressureIn,WindDirection,WindDirectionDegrees,WindSpeedMPH,WindSpeedGustMPH,Humidity,HourlyPrecipIn,Conditions,Clouds,dailyrainin,SolarRadiationWatts/m^2,SoftwareType,DateUTC
2013-02-18 00:00:00,17.0,6.6,30.26,West,273,4.0,6.0,63,0.00,,,0.00,0,Wunderground v.1.15,2013-02-18 05:00:00,
2013-02-18 00:03:00,17.0,6.9,30.27,WNW,296,3.0,11.0,64,0.00,,,0.00,0,Wunderground v.1.15,2013-02-18 05:03:00,
2013-02-18 00:05:00,17.0,6.6,30.27,NW,308,4.0,11.0,63,0.00,,,0.00,0,Wunderground v.1.15,2013-02-18 05:05:00,
2013-02-18 00:06:00,17.0,6.9,30.27,NW,321,5.0,11.0,64,0.00,,,0.00,0,Wunderground v.1.15,2013-02-18 05:06:00,
2013-02-18 00:11:00,17.0,6.9,30.27,NW,325,6.0,6.0,64,0.00,,,0.00,0,Wunderground v.1.15,2013-02-18 05:11:00,
2013-02-18 00:16:00,17.0,6.9,30.27,North,360,5.0,9.0,64,0.00,,,0.00,0,Wunderground v.1.15,2013-02-18 05:16:00,
2013-02-18 00:21:00,17.0,6.9,30.27,WNW,303,7.0,10.0,64,0.00,,,0.00,0,Wunderground v.1.15,2013-02-18 05:21:00,
2013-02-18 00:27:00,16.9,6.8,30.27,NW,312,7.0,12.0,64,0.00,,,0.00,0,Wunderground v.1.15,2013-02-18 05:27:00,
2013-02-18 00:32:00,16.9,6.5,30.26,WSW,250,6.0,13.0,63,0.00,,,0.00,0,Wunderground v.1.15,2013-02-18 05:32:00,
2013-02-18 00:37:00,16.9,6.8,30.27,North,360,6.0,13.0,64,0.00,,,0.00,0,Wunderground v.1.15,2013-02-18 05:37:00,
2013-02-18 00:43:00,16.7,7.0,30.27,North,360,4.0,9.0,65,0.00,,,0.00,0,Wunderground v.1.15,2013-02-18 05:43:00,
2013-02-18 00:48:00,16.6,6.9,30.27,NW,304,4.0,15.0,65,0.00,,,0.00,0,Wunderground v.1.15,2013-02-18 05:48:00,
2013-02-18 00:53:00,16.5,6.8,30.27,West,264,5.0,7.0,65,0.00,,,0.00,0,Wunderground v.1.15,2013-02-18 05:53:00,
2013-02-18 00:59:00,16.5,6.8,30.27,North,5,6.0,13.0,65,0.00,,,0.00,0,Wunderground v.1.15,2013-02-18 05:59:00,
2013-02-18 01:05:00,16.5,6.8,30.27,NW,308,5.0,7.0,65,0.00,,,0.00,0,Wunderground v.1.15,2013-02-18 06:05:00,
2013-02-18 01:10:00,16.4,6.7,30.27,WNW,294,4.0,6.0,65,0.00,,,0.00,0,Wunderground v.1.15,2013-02-18 06:10:00,
2013-02-18 01:16:00,16.4,7.0,30.28,South,190,4.0,7.0,66,0.00,,,0.00,0,Wunderground v.1.15,2013-02-18 06:16:00,
2013-02-18 01:21:00,16.3,6.9,30.28,SW,215,4.0,4.0,66,0.00,,,0.00,0,Wunderground v.1.15,2013-02-18 06:21:00,
2013-02-18 01:26:00,16.2,7.2,30.28,West,264,3.0,8.0,67,0.00,,,0.00,0,Wunderground v.1.15,2013-02-18 06:26:00,
2013-02-18 01:32:00,16.2,7.2,30.29,West,259,3.0,12.0,67,0.00,,,0.00,0,Wunderground v.1.15,2013-02-18 06:32:00,
2013-02-18 01:37:00,16.2,7.5,30.29,NW,319,4.0,12.0,68,0.00,,,0.00,0,Wunderground v.1.15,2013-02-18 06:37:00,
2013-02-18 01:43:00,16.1,7.4,30.30,WSW,246,4.0,7.0,68,0.00,,,0.00,0,Wunderground v.1.15,2013-02-18 06:43:00,
2013-02-18 01:48:00,16.1,7.4,30.29,West,272,5.0,12.0,68,0.00,,,0.00,0,Wunderground v.1.15,2013-02-18 06:48:00,
2013-02-18 01:53:00,16.0,7.0,30.30,WSW,254,4.0,7.0,67,0.00,,,0.00,0,Wunderground v.1.15,2013-02-18 06:53:00,
2013-02-18 01:58:00,15.9,6.5,30.30,NNE,15,3.0,7.0,66,0.00,,,0.00,0,Wunderground v.1.15,2013-02-18 06:58:00,
2013-02-18 02:04:00,15.8,7.1,30.30,East,87,3.0,3.0,68,0.00,,,0.00,0,Wunderground v.1.15,2013-02-18 07:04:00,
2013-02-18 02:10:00,15.5,7.1,30.30,SSE,153,2.0,4.0,69,0.00,,,0.00,0,Wunderground v.1.15,2013-02-18 07:10:00,
2013-02-18 02:15:00,15.4,6.7,30.30,West,265,3.0,6.0,68,0.00,,,0.00,0,Wunderground v.1.15,2013-02-18 07:15:00,
2013-02-18 02:20:00,15.5,6.5,30.29,WSW,253,4.0,10.0,67,0.00,,,0.00,0,Wunderground v.1.15,2013-02-18 07:20:00,
2013-02-18 02:25:00,15.6,6.9,30.30,South,184,5.0,10.0,68,0.00,,,0.00,0,Wunderground v.1.15,2013-02-18 07:25:00,
2013-02-18 02:31:00,15.5,6.8,30.29,SW,219,3.0,7.0,68,0.00,,,0.00,0,Wunderground v.1.15,2013-02-18 07:31:00,
2013-02-18 02:36:00,15.5,6.5,30.30,South,170,2.0,7.0,67,0.00,,,0.00,0,Wunderground v.1.15,2013-02-18 07:36:00,
2013-02-18 02:42:00,15.5,6.5,30.30,SSE,166,2.0,5.0,67,0.00,,,0.00,0,Wunderground v.1.15,2013-02-18 07:42:00,
2013-02-18 02:47:00,15.4,7.0,30.30,West,274,3.0,7.0,69,0.00,,,0.00,0,Wunderground v.1.15,2013-02-18 07:47:00,
2013-02-18 02:53:00,15.3,6.6,30.30,SW,229,3.0,4.0,68,0.00,,,0.00,0,Wunderground v.1.15,2013-02-18 07:53:00,
2013-02-18 02:58:00,15.3,6.3,30.30,South,179,3.0,6.0,67,0.00,,,0.00,0,Wunderground v.1.15,2013-02-18 07:58:00,
2013-02-18 03:04:00,15.2,6.5,30.30,SSE,165,4.0,5.0,68,0.00,,,0.00,0,Wunderground v.1.15,2013-02-18 08:04:00,
2013-02-18 03:09:00,15.0,7.0,30.29,SSE,153,5.0,7.0,70,0.00,,,0.00,0,Wunderground v.1.15,2013-02-18 08:09:00,
2013-02-18 03:15:00,15.1,6.1,30.29,ENE,78,4.0,5.0,67,0.00,,,0.00,0,Wunderground v.1.15,2013-02-18 08:15:00,
2013-02-18 03:20:00,15.1,7.1,30.29,SE,132,2.0,2.0,70,0.00,,,0.00,0,Wunderground v.1.15,2013-02-18 08:20:00,
2013-02-18 03:26:00,15.0,6.7,30.29,SE,134,1.0,2.0,69,0.00,,,0.00,0,Wunderground v.1.15,2013-02-18 08:26:00,
2013-02-18 03:31:00,14.7,6.7,30.29,SE,134,1.0,3.0,70,0.00,,,0.00,0,Wunderground v.1.15,2013-02-18 08:31:00,
2013-02-18 03:37:00,14.3,6.9,30.30,South,173,2.0,3.0,72,0.00,,,0.00,0,Wunderground v.1.15,2013-02-18 08:37:00,
2013-02-18 03:42:00,14.0,7.5,30.30,SSW,202,4.0,8.0,75,0.00,,,0.00,0,Wunderground v.1.15,2013-02-18 08:42:00,
2013-02-18 03:47:00,13.8,7.0,30.30,South,179,4.0,8.0,74,0.00,,,0.00,0,Wunderground v.1.15,2013-02-18 08:47:00,
2013-02-18 03:52:00,13.8,7.0,30.30,SW,221,2.0,4.0,74,0.00,,,0.00,0,Wunderground v.1.15,2013-02-18 08:52:00,
2013-02-18 03:58:00,13.8,7.3,30.30,SSW,200,1.0,4.0,75,0.00,,,0.00,0,Wunderground v.1.15,2013-02-18 08:58:00,
2013-02-18 04:04:00,13.6,7.1,30.30,SSW,200,2.0,2.0,75,0.00,,,0.00,0,Wunderground v.1.15,2013-02-18 09:04:00,
2013-02-18 04:09:00,13.5,7.0,30.30,SSW,202,1.0,3.0,75,0.00,,,0.00,0,Wunderground v.1.15,2013-02-18 09:09:00,
2013-02-18 04:15:00,13.4,7.0,30.30,South,171,2.0,5.0,75,0.00,,,0.00,0,Wunderground v.1.15,2013-02-18 09:15:00,
2013-02-18 04:20:00,13.2,7.0,30.31,South,171,2.0,2.0,76,0.00,,,0.00,0,Wunderground v.1.15,2013-02-18 09:20:00,
2013-02-18 04:25:00,13.2,7.0,30.30,South,175,2.0,3.0,76,0.00,,,0.00,0,Wunderground v.1.15,2013-02-18 09:25:00,
2013-02-18 04:31:00,13.0,7.1,30.30,South,181,1.0,3.0,77,0.00,,,0.00,0,Wunderground v.1.15,2013-02-18 09:31:00,
2013-02-18 04:36:00,12.9,7.3,30.31,South,178,1.0,3.0,78,0.00,,,0.00,0,Wunderground v.1.15,2013-02-18 09:36:00,
2013-02-18 04:42:00,12.7,7.1,30.31,SSW,209,1.0,3.0,78,0.00,,,0.00,0,Wunderground v.1.15,2013-02-18 09:42:00,
2013-02-18 04:47:00,12.6,7.0,30.32,SSW,209,1.0,3.0,78,0.00,,,0.00,0,Wunderground v.1.15,2013-02-18 09:47:00,
2013-02-18 04:52:00,12.5,7.2,30.32,SSW,209,1.0,1.0,79,0.00,,,0.00,0,Wunderground v.1.15,2013-02-18 09:52:00,
2013-02-18 04:57:00,12.4,7.1,30.32,SSW,208,0.0,1.0,79,0.00,,,0.00,0,Wunderground v.1.15,2013-02-18 09:57:00,
2013-02-18 05:03:00,12.4,7.1,30.33,SSW,209,0.0,0.0,79,0.00,,,0.00,0,Wunderground v.1.15,2013-02-18 10:03:00,
2013-02-18 05:09:00,12.3,6.7,30.33,SSW,209,0.0,2.0,78,0.00,,,0.00,0,Wunderground v.1.15,2013-02-18 10:09:00,
2013-02-18 05:14:00,12.3,7.0,30.33,West,279,0.0,1.0,79,0.00,,,0.00,0,Wunderground v.1.15,2013-02-18 10:14:00,
2013-02-18 05:19:00,12.2,6.9,30.33,West,279,1.0,2.0,79,0.00,,,0.00,0,Wunderground v.1.15,2013-02-18 10:19:00,
2013-02-18 05:25:00,12.1,7.1,30.33,West,281,0.0,1.0,80,0.00,,,0.00,0,Wunderground v.1.15,2013-02-18 10:25:00,
2013-02-18 05:30:00,12.0,7.0,30.33,West,279,0.0,3.0,80,0.00,,,0.00,0,Wunderground v.1.15,2013-02-18 10:30:00,
2013-02-18 05:35:00,11.9,6.9,30.33,NE,56,1.0,3.0,80,0.00,,,0.00,0,Wunderground v.1.15,2013-02-18 10:35:00,
2013-02-18 05:41:00,11.7,7.3,30.33,ENE,57,1.0,1.0,82,0.00,,,0.00,0,Wunderground v.1.15,2013-02-18 10:41:00,
2013-02-18 05:46:00,11.6,7.2,30.33,ENE,57,1.0,1.0,82,0.00,,,0.00,0,Wunderground v.1.15,2013-02-18 10:46:00,
2013-02-18 05:51:00,11.6,7.4,30.33,ENE,57,0.0,0.0,83,0.00,,,0.00,0,Wunderground v.1.15,2013-02-18 10:51:00,
2013-02-18 05:57:00,11.5,7.3,30.34,NE,56,0.0,0.0,83,0.00,,,0.00,0,Wunderground v.1.15,2013-02-18 10:57:00,
2013-02-18 06:03:00,11.4,7.2,30.34,NNW,334,1.0,3.0,83,0.00,,,0.00,0,Wunderground v.1.15,2013-02-18 11:03:00,
2013-02-18 06:08:00,11.4,7.5,30.34,NNW,338,1.0,3.0,84,0.00,,,0.00,0,Wunderground v.1.15,2013-02-18 11:08:00,
2013-02-18 06:13:00,11.3,7.4,30.34,NNW,336,0.0,2.0,84,0.00,,,0.00,0,Wunderground v.1.15,2013-02-18 11:13:00,
2013-02-18 06:18:00,11.3,7.4,30.34,NNW,333,0.0,2.0,84,0.00,,,0.00,0,Wunderground v.1.15,2013-02-18 11:18:00,
2013-02-18 06:24:00,11.1,6.9,30.34,NNW,333,0.0,0.0,83,0.00,,,0.00,0,Wunderground v.1.15,2013-02-18 11:24:00,
2013-02-18 06:30:00,11.0,7.1,30.34,NNW,333,0.0,0.0,84,0.00,,,0.00,0,Wunderground v.1.15,2013-02-18 11:30:00,
2013-02-18 06:35:00,10.9,7.3,30.34,West,278,0.0,1.0,85,0.00,,,0.00,0,Wunderground v.1.15,2013-02-18 11:35:00,
2013-02-18 06:41:00,10.7,7.1,30.35,West,271,0.0,1.0,85,0.00,,,0.00,0,Wunderground v.1.15,2013-02-18 11:41:00,
2013-02-18 06:46:00,10.7,7.1,30.35,West,274,1.0,2.0,85,0.00,,,0.00,0,Wunderground v.1.15,2013-02-18 11:46:00,
2013-02-18 06:51:00,10.6,7.0,30.35,West,278,1.0,3.0,85,0.00,,,0.00,0,Wunderground v.1.15,2013-02-18 11:51:00,
2013-02-18 06:57:00,10.6,7.0,30.35,WNW,286,1.0,3.0,85,0.00,,,0.00,0,Wunderground v.1.15,2013-02-18 11:57:00,
2013-02-18 07:03:00,10.5,6.9,30.35,WNW,285,0.0,2.0,85,0.00,,,0.00,5,Wunderground v.1.15,2013-02-18 12:03:00,
2013-02-18 07:08:00,10.6,7.0,30.36,North,360,1.0,2.0,85,0.00,,,0.00,9,Wunderground v.1.15,2013-02-18 12:08:00,
2013-02-18 07:13:00,10.7,7.3,30.36,NW,309,2.0,4.0,86,0.00,,,0.00,11,Wunderground v.1.15,2013-02-18 12:13:00,
2013-02-18 07:19:00,10.7,7.3,30.37,NW,307,2.0,4.0,86,0.00,,,0.00,14,Wunderground v.1.15,2013-02-18 12:19:00,
2013-02-18 07:24:00,10.7,7.6,30.37,NW,309,1.0,2.0,87,0.00,,,0.00,18,Wunderground v.1.15,2013-02-18 12:24:00,
2013-02-18 07:29:00,10.8,7.4,30.37,North,360,0.0,2.0,86,0.00,,,0.00,19,Wunderground v.1.15,2013-02-18 12:29:00,
2013-02-18 07:35:00,11.0,7.4,30.37,NW,309,0.0,2.0,85,0.00,,,0.00,23,Wunderground v.1.15,2013-02-18 12:35:00,
2013-02-18 07:40:00,11.2,7.6,30.37,North,360,1.0,1.0,85,0.00,,,0.00,25,Wunderground v.1.15,2013-02-18 12:40:00,
2013-02-18 07:45:00,11.4,7.2,30.37,North,360,1.0,2.0,83,0.00,,,0.00,28,Wunderground v.1.15,2013-02-18 12:45:00,
2013-02-18 07:51:00,11.7,7.8,30.38,NW,309,1.0,2.0,84,0.00,,,0.00,88,Wunderground v.1.15,2013-02-18 12:51:00,
2013-02-18 07:56:00,12.1,8.2,30.38,ENE,71,1.0,3.0,84,0.00,,,0.00,105,Wunderground v.1.15,2013-02-18 12:56:00,
2013-02-18 08:02:00,12.6,8.1,30.38,ENE,64,3.0,4.0,82,0.00,,,0.00,86,Wunderground v.1.15,2013-02-18 13:02:00,
2013-02-18 08:07:00,13.2,8.5,30.38,NE,52,3.0,6.0,81,0.00,,,0.00,97,Wunderground v.1.15,2013-02-18 13:07:00,
2013-02-18 08:13:00,13.7,8.7,30.38,NE,51,4.0,4.0,80,0.00,,,0.00,199,Wunderground v.1.15,2013-02-18 13:13:00,
2013-02-18 08:18:00,14.1,9.1,30.38,NE,41,4.0,4.0,80,0.00,,,0.00,165,Wunderground v.1.15,2013-02-18 13:18:00,
2013-02-18 08:23:00,14.5,9.2,30.38,NE,48,4.0,6.0,79,0.00,,,0.00,236,Wunderground v.1.15,2013-02-18 13:23:00,
2013-02-18 08:29:00,15.0,9.1,30.38,NE,40,4.0,6.0,77,0.00,,,0.00,257,Wunderground v.1.15,2013-02-18 13:29:00,
2013-02-18 08:34:00,15.5,9.6,30.38,NE,42,3.0,6.0,77,0.00,,,0.00,272,Wunderground v.1.15,2013-02-18 13:34:00,
2013-02-18 08:39:00,16.1,10.4,30.38,ENE,72,3.0,6.0,78,0.00,,,0.00,295,Wunderground v.1.15,2013-02-18 13:39:00,
2013-02-18 08:45:00,16.8,10.2,30.37,ENE,69,3.0,5.0,75,0.00,,,0.00,313,Wunderground v.1.15,2013-02-18 13:45:00,
2013-02-18 08:50:00,17.1,10.5,30.37,ENE,59,4.0,4.0,75,0.00,,,0.00,327,Wunderground v.1.15,2013-02-18 13:50:00,
2013-02-18 08:55:00,17.6,10.7,30.38,East,80,4.0,5.0,74,0.00,,,0.00,345,Wunderground v.1.15,2013-02-18 13:55:00,
2013-02-18 09:00:00,18.1,10.6,30.38,ENE,71,4.0,4.0,72,0.00,,,0.00,357,Wunderground v.1.15,2013-02-18 14:00:00,
2013-02-18 09:06:00,18.6,11.1,30.37,ENE,59,4.0,5.0,72,0.00,,,0.00,371,Wunderground v.1.15,2013-02-18 14:06:00,
2013-02-18 09:11:00,19.0,11.1,30.37,ENE,75,4.0,5.0,71,0.00,,,0.00,385,Wunderground v.1.15,2013-02-18 14:11:00,
2013-02-18 09:16:00,19.4,10.9,30.37,ENE,67,5.0,7.0,69,0.00,,,0.00,388,Wunderground v.1.15,2013-02-18 14:16:00,
2013-02-18 09:22:00,19.8,11.3,30.37,NE,51,5.0,5.0,69,0.00,,,0.00,427,Wunderground v.1.15,2013-02-18 14:22:00,
2013-02-18 09:27:00,20.3,12.1,30.37,NE,55,4.0,6.0,70,0.00,,,0.00,417,Wunderground v.1.15,2013-02-18 14:27:00,
2013-02-18 09:32:00,20.8,12.2,30.37,ENE,70,4.0,7.0,69,0.00,,,0.00,452,Wunderground v.1.15,2013-02-18 14:32:00,
2013-02-18 09:37:00,21.1,11.5,30.37,NE,44,4.0,7.0,66,0.00,,,0.00,438,Wunderground v.1.15,2013-02-18 14:37:00,
2013-02-18 09:43:00,21.5,11.2,30.37,NE,41,3.0,3.0,64,0.00,,,0.00,454,Wunderground v.1.15,2013-02-18 14:43:00,
2013-02-18 09:48:00,21.8,11.5,30.37,NE,42,3.0,4.0,64,0.00,,,0.00,485,Wunderground v.1.15,2013-02-18 14:48:00,
2013-02-18 09:53:00,22.2,11.5,30.36,NNE,26,3.0,4.0,63,0.00,,,0.00,503,Wunderground v.1.15,2013-02-18 14:53:00,
2013-02-18 09:59:00,22.9,12.2,30.36,NNE,23,2.0,4.0,63,0.00,,,0.00,517,Wunderground v.1.15,2013-02-18 14:59:00,
2013-02-18 10:05:00,23.1,11.6,30.36,NE,52,2.0,4.0,61,0.00,,,0.00,529,Wunderground v.1.15,2013-02-18 15:05:00,
2013-02-18 10:10:00,23.1,12.0,30.36,NE,51,2.0,3.0,62,0.00,,,0.00,533,Wunderground v.1.15,2013-02-18 15:10:00,
2013-02-18 10:15:00,23.7,12.6,30.36,East,81,2.0,6.0,62,0.00,,,0.00,550,Wunderground v.1.15,2013-02-18 15:15:00,
2013-02-18 10:21:00,24.3,12.0,30.36,ENE,71,2.0,2.0,59,0.00,,,0.00,554,Wunderground v.1.15,2013-02-18 15:21:00,
2013-02-18 10:26:00,24.6,13.1,30.35,NE,48,2.0,3.0,61,0.00,,,0.00,564,Wunderground v.1.15,2013-02-18 15:26:00,
2013-02-18 10:31:00,24.9,12.2,30.35,NNE,17,2.0,2.0,58,0.00,,,0.00,571,Wunderground v.1.15,2013-02-18 15:31:00,
2013-02-18 10:37:00,25.1,12.4,30.36,NNW,327,1.0,2.0,58,0.00,,,0.00,594,Wunderground v.1.15,2013-02-18 15:37:00,
2013-02-18 10:42:00,25.6,12.9,30.35,NW,304,1.0,2.0,58,0.00,,,0.00,598,Wunderground v.1.15,2013-02-18 15:42:00,
2013-02-18 10:47:00,26.0,12.8,30.35,NW,306,1.0,2.0,57,0.00,,,0.00,603,Wunderground v.1.15,2013-02-18 15:47:00,
2013-02-18 10:53:00,26.7,13.5,30.35,NW,305,1.0,1.0,57,0.00,,,0.00,587,Wunderground v.1.15,2013-02-18 15:53:00,
2013-02-18 10:58:00,27.3,12.8,30.35,South,179,1.0,4.0,54,0.00,,,0.00,615,Wunderground v.1.15,2013-02-18 15:58:00,
2013-02-18 11:04:00,28.3,14.2,30.35,South,180,1.0,2.0,55,0.00,,,0.00,640,Wunderground v.1.15,2013-02-18 16:04:00,
2013-02-18 11:09:00,28.8,13.8,30.34,South,188,1.0,5.0,53,0.00,,,0.00,650,Wunderground v.1.15,2013-02-18 16:09:00,
2013-02-18 11:15:00,29.2,13.7,30.34,South,183,2.0,3.0,52,0.00,,,0.00,647,Wunderground v.1.15,2013-02-18 16:15:00,
2013-02-18 11:20:00,29.4,14.4,30.34,SSW,192,2.0,2.0,53,0.00,,,0.00,656,Wunderground v.1.15,2013-02-18 16:20:00,
2013-02-18 11:26:00,29.9,15.7,30.34,WSW,240,2.0,6.0,55,0.00,,,0.00,647,Wunderground v.1.15,2013-02-18 16:26:00,
2013-02-18 11:31:00,30.4,15.3,30.33,WSW,237,2.0,2.0,53,0.00,,,0.00,652,Wunderground v.1.15,2013-02-18 16:31:00,
2013-02-18 11:37:00,30.8,14.3,30.33,South,171,1.0,3.0,50,0.00,,,0.00,650,Wunderground v.1.15,2013-02-18 16:37:00,
2013-02-18 11:42:00,30.6,14.6,30.33,SSW,197,2.0,3.0,51,0.00,,,0.00,649,Wunderground v.1.15,2013-02-18 16:42:00,
2013-02-18 11:47:00,31.1,15.1,30.32,South,173,3.0,5.0,51,0.00,,,0.00,654,Wunderground v.1.15,2013-02-18 16:47:00,
2013-02-18 11:53:00,31.3,13.9,30.32,SSE,164,4.0,5.0,48,0.00,,,0.00,657,Wunderground v.1.15,2013-02-18 16:53:00,
2013-02-18 11:58:00,31.7,16.1,30.32,SSE,150,3.0,5.0,52,0.00,,,0.00,668,Wunderground v.1.15,2013-02-18 16:58:00,
2013-02-18 12:04:00,32.1,16.0,30.31,SE,141,4.0,5.0,51,0.00,,,0.00,670,Wunderground v.1.15,2013-02-18 17:04:00,
2013-02-18 12:10:00,32.7,15.1,30.31,SW,219,4.0,7.0,48,0.00,,,0.00,659,Wunderground v.1.15,2013-02-18 17:10:00,
2013-02-18 12:15:00,33.2,16.1,30.30,SW,234,5.0,7.0,49,0.00,,,0.00,657,Wunderground v.1.15,2013-02-18 17:15:00,
2013-02-18 12:21:00,33.6,15.5,30.30,North,360,2.0,5.0,47,0.00,,,0.00,656,Wunderground v.1.15,2013-02-18 17:21:00,
2013-02-18 12:26:00,34.1,16.9,30.30,SSW,193,3.0,7.0,49,0.00,,,0.00,654,Wunderground v.1.15,2013-02-18 17:26:00,
2013-02-18 12:32:00,34.7,16.5,30.29,SW,234,4.0,4.0,47,0.00,,,0.00,650,Wunderground v.1.15,2013-02-18 17:32:00,
2013-02-18 12:37:00,35.0,16.8,30.28,SW,227,3.0,4.0,47,0.00,,,0.00,654,Wunderground v.1.15,2013-02-18 17:37:00,
2013-02-18 12:43:00,35.4,16.6,30.28,SSW,200,4.0,7.0,46,0.00,,,0.00,649,Wunderground v.1.15,2013-02-18 17:43:00,
2013-02-18 12:48:00,35.8,16.0,30.27,SW,231,5.0,7.0,44,0.00,,,0.00,664,Wunderground v.1.15,2013-02-18 17:48:00,
2013-02-18 12:54:00,35.9,16.6,30.27,WSW,255,4.0,5.0,45,0.00,,,0.00,636,Wunderground v.1.15,2013-02-18 17:54:00,
2013-02-18 12:59:00,36.4,17.6,30.26,North,360,3.0,5.0,46,0.00,,,0.00,550,Wunderground v.1.15,2013-02-18 17:59:00,
2013-02-18 13:04:00,36.6,17.2,30.26,SW,218,3.0,6.0,45,0.00,,,0.00,663,Wunderground v.1.15,2013-02-18 18:04:00,
2013-02-18 13:10:00,37.0,18.1,30.25,SSW,206,3.0,6.0,46,0.00,,,0.00,659,Wunderground v.1.15,2013-02-18 18:10:00,
2013-02-18 13:16:00,37.7,17.7,30.25,WSW,252,3.0,6.0,44,0.00,,,0.00,650,Wunderground v.1.15,2013-02-18 18:16:00,
2013-02-18 13:22:00,38.0,16.9,30.24,WSW,246,2.0,3.0,42,0.00,,,0.00,645,Wunderground v.1.15,2013-02-18 18:22:00,
2013-02-18 13:27:00,38.0,18.5,30.24,South,169,2.0,3.0,45,0.00,,,0.00,626,Wunderground v.1.15,2013-02-18 18:27:00,
2013-02-18 13:33:00,38.3,19.3,30.24,West,261,2.0,4.0,46,0.00,,,0.00,622,Wunderground v.1.15,2013-02-18 18:33:00,
2013-02-18 13:39:00,38.6,19.1,30.23,East,97,1.0,4.0,45,0.00,,,0.00,557,Wunderground v.1.15,2013-02-18 18:39:00,
2013-02-18 13:44:00,38.5,19.5,30.23,SSW,205,1.0,2.0,46,0.00,,,0.00,585,Wunderground v.1.15,2013-02-18 18:44:00,
2013-02-18 13:49:00,38.7,18.6,30.23,SW,219,2.0,4.0,44,0.00,,,0.00,622,Wunderground v.1.15,2013-02-18 18:49:00,
2013-02-18 13:55:00,38.7,18.6,30.23,SW,232,2.0,2.0,44,0.00,,,0.00,601,Wunderground v.1.15,2013-02-18 18:55:00,
2013-02-18 14:00:00,38.5,17.9,30.22,ESE,103,2.0,4.0,43,0.00,,,0.00,589,Wunderground v.1.15,2013-02-18 19:00:00,
2013-02-18 14:06:00,38.4,18.4,30.22,ENE,78,3.0,4.0,44,0.00,,,0.00,573,Wunderground v.1.15,2013-02-18 19:06:00,
2013-02-18 14:12:00,38.4,18.4,30.22,NE,45,3.0,4.0,44,0.00,,,0.00,499,Wunderground v.1.15,2013-02-18 19:12:00,
2013-02-18 14:17:00,38.7,19.7,30.21,ENE,75,2.0,4.0,46,0.00,,,0.00,564,Wunderground v.1.15,2013-02-18 19:17:00,
2013-02-18 14:23:00,39.0,18.4,30.21,ENE,74,2.0,3.0,43,0.00,,,0.00,563,Wunderground v.1.15,2013-02-18 19:23:00,
2013-02-18 14:28:00,39.1,19.0,30.20,ENE,70,2.0,3.0,44,0.00,,,0.00,547,Wunderground v.1.15,2013-02-18 19:28:00,
2013-02-18 14:34:00,39.6,18.9,30.20,NE,45,1.0,4.0,43,0.00,,,0.00,415,Wunderground v.1.15,2013-02-18 19:34:00,
2013-02-18 14:39:00,39.8,18.5,30.20,North,350,2.0,4.0,42,0.00,,,0.00,466,Wunderground v.1.15,2013-02-18 19:39:00,
2013-02-18 14:45:00,40.3,19.5,30.20,ENE,78,1.0,2.0,43,0.00,,,0.00,452,Wunderground v.1.15,2013-02-18 19:45:00,
2013-02-18 14:51:00,40.4,18.0,30.20,NE,50,1.0,3.0,40,0.00,,,0.00,374,Wunderground v.1.15,2013-02-18 19:51:00,
2013-02-18 14:56:00,40.8,18.9,30.19,ENE,59,1.0,4.0,41,0.00,,,0.00,420,Wunderground v.1.15,2013-02-18 19:56:00,
2013-02-18 15:02:00,40.8,18.9,30.19,East,90,2.0,6.0,41,0.00,,,0.00,410,Wunderground v.1.15,2013-02-18 20:02:00,
2013-02-18 15:07:00,40.7,18.2,30.19,ESE,119,3.0,6.0,40,0.00,,,0.00,429,Wunderground v.1.15,2013-02-18 20:07:00,
2013-02-18 15:12:00,41.0,19.6,30.19,ENE,75,3.0,6.0,42,0.00,,,0.00,408,Wunderground v.1.15,2013-02-18 20:12:00,
2013-02-18 15:17:00,41.1,18.6,30.18,ENE,71,3.0,6.0,40,0.00,,,0.00,353,Wunderground v.1.15,2013-02-18 20:17:00,
2013-02-18 15:23:00,41.2,18.1,30.18,ENE,76,1.0,2.0,39,0.00,,,0.00,285,Wunderground v.1.15,2013-02-18 20:23:00,
2013-02-18 15:28:00,41.4,18.9,30.18,ENE,76,1.0,3.0,40,0.00,,,0.00,239,Wunderground v.1.15,2013-02-18 20:28:00,
2013-02-18 15:34:00,41.4,18.9,30.18,SE,144,1.0,2.0,40,0.00,,,0.00,265,Wunderground v.1.15,2013-02-18 20:34:00,
2013-02-18 15:40:00,41.7,19.7,30.19,SE,144,1.0,1.0,41,0.00,,,0.00,262,Wunderground v.1.15,2013-02-18 20:40:00,
2013-02-18 15:45:00,42.0,20.0,30.18,SE,127,1.0,3.0,41,0.00,,,0.00,229,Wunderground v.1.15,2013-02-18 20:45:00,
2013-02-18 15:50:00,42.2,20.7,30.18,SE,143,2.0,2.0,42,0.00,,,0.00,223,Wunderground v.1.15,2013-02-18 20:50:00,
2013-02-18 15:56:00,42.0,20.5,30.18,ESE,109,4.0,6.0,42,0.00,,,0.00,204,Wunderground v.1.15,2013-02-18 20:56:00,
2013-02-18 16:02:00,41.8,19.2,30.18,East,82,3.0,3.0,40,0.00,,,0.00,193,Wunderground v.1.15,2013-02-18 21:02:00,
2013-02-18 16:07:00,41.5,18.9,30.18,East,90,2.0,5.0,40,0.00,,,0.00,197,Wunderground v.1.15,2013-02-18 21:07:00,
2013-02-18 16:13:00,41.3,19.3,30.18,East,79,3.0,4.0,41,0.00,,,0.00,183,Wunderground v.1.15,2013-02-18 21:13:00,
2013-02-18 16:19:00,41.2,18.7,30.18,ENE,76,3.0,4.0,40,0.00,,,0.00,156,Wunderground v.1.15,2013-02-18 21:19:00,
2013-02-18 16:24:00,41.1,19.7,30.18,ENE,78,2.0,2.0,42,0.00,,,0.00,142,Wunderground v.1.15,2013-02-18 21:24:00,
2013-02-18 16:29:00,41.1,19.7,30.18,ENE,78,1.0,2.0,42,0.00,,,0.00,130,Wunderground v.1.15,2013-02-18 21:29:00,
2013-02-18 16:35:00,41.0,19.1,30.18,East,79,0.0,1.0,41,0.00,,,0.00,116,Wunderground v.1.15,2013-02-18 21:35:00,
2013-02-18 16:40:00,41.0,20.2,30.17,NE,53,1.0,1.0,43,0.00,,,0.00,109,Wunderground v.1.15,2013-02-18 21:40:00,
2013-02-18 16:46:00,41.0,19.1,30.17,ENE,57,1.0,2.0,41,0.00,,,0.00,116,Wunderground v.1.15,2013-02-18 21:46:00,
2013-02-18 16:52:00,41.0,19.1,30.17,NE,42,1.0,3.0,41,0.00,,,0.00,93,Wunderground v.1.15,2013-02-18 21:52:00,
2013-02-18 16:57:00,40.9,19.0,30.17,NE,42,2.0,3.0,41,0.00,,,0.00,76,Wunderground v.1.15,2013-02-18 21:57:00,
2013-02-18 17:02:00,40.7,19.9,30.17,NNE,31,2.0,3.0,43,0.00,,,0.00,70,Wunderground v.1.15,2013-02-18 22:02:00,
2013-02-18 17:08:00,40.3,19.5,30.17,NE,36,3.0,4.0,43,0.00,,,0.00,54,Wunderground v.1.15,2013-02-18 22:08:00,
2013-02-18 17:13:00,40.0,19.8,30.17,NE,34,3.0,4.0,44,0.00,,,0.00,49,Wunderground v.1.15,2013-02-18 22:13:00,
2013-02-18 17:19:00,39.7,19.5,30.17,NNE,16,3.0,4.0,44,0.00,,,0.00,40,Wunderground v.1.15,2013-02-18 22:19:00,
2013-02-18 17:24:00,39.4,20.8,30.17,NNE,17,3.0,4.0,47,0.00,,,0.00,35,Wunderground v.1.15,2013-02-18 22:24:00,
2013-02-18 17:29:00,39.1,22.0,30.17,NNE,17,2.0,4.0,50,0.00,,,0.00,32,Wunderground v.1.15,2013-02-18 22:29:00,
2013-02-18 17:35:00,38.2,24.7,30.17,NNE,19,2.0,2.0,58,0.00,,,0.00,23,Wunderground v.1.15,2013-02-18 22:35:00,
2013-02-18 17:41:00,37.2,24.6,30.17,NNE,17,2.0,3.0,60,0.00,,,0.00,16,Wunderground v.1.15,2013-02-18 22:41:00,
2013-02-18 17:46:00,36.4,24.6,30.17,NNE,17,2.0,3.0,62,0.00,,,0.00,11,Wunderground v.1.15,2013-02-18 22:46:00,
2013-02-18 17:52:00,35.5,24.9,30.17,North,5,3.0,3.0,65,0.00,,,0.00,5,Wunderground v.1.15,2013-02-18 22:52:00,
2013-02-18 17:57:00,34.7,24.5,30.17,North,9,2.0,3.0,66,0.00,,,0.00,0,Wunderground v.1.15,2013-02-18 22:57:00,
2013-02-18 18:03:00,33.8,24.0,30.17,NNW,337,3.0,4.0,67,0.00,,,0.00,0,Wunderground v.1.15,2013-02-18 23:03:00,
2013-02-18 18:08:00,33.2,24.1,30.17,NNW,329,3.0,5.0,69,0.00,,,0.00,0,Wunderground v.1.15,2013-02-18 23:08:00,
2013-02-18 18:14:00,32.6,23.6,30.17,NNW,330,3.0,4.0,69,0.00,,,0.00,0,Wunderground v.1.15,2013-02-18 23:14:00,
2013-02-18 18:19:00,32.0,23.3,30.17,NNW,327,3.0,4.0,70,0.00,,,0.00,0,Wunderground v.1.15,2013-02-18 23:19:00,
2013-02-18 18:24:00,31.7,23.4,30.17,NNW,327,4.0,5.0,71,0.00,,,0.00,0,Wunderground v.1.15,2013-02-18 23:24:00,
2013-02-18 18:30:00,31.4,23.1,30.17,NNW,327,4.0,5.0,71,0.00,,,0.00,0,Wunderground v.1.15,2013-02-18 23:30:00,
2013-02-18 18:35:00,31.1,23.1,30.17,NW,325,4.0,5.0,72,0.00,,,0.00,0,Wunderground v.1.15,2013-02-18 23:35:00,
2013-02-18 18:40:00,30.9,22.9,30.17,NW,321,4.0,4.0,72,0.00,,,0.00,0,Wunderground v.1.15,2013-02-18 23:40:00,
2013-02-18 18:45:00,30.7,23.1,30.16,NW,315,4.0,4.0,73,0.00,,,0.00,0,Wunderground v.1.15,2013-02-18 23:45:00,
2013-02-18 18:51:00,30.3,23.6,30.16,NW,317,3.0,4.0,76,0.00,,,0.00,0,Wunderground v.1.15,2013-02-18 23:51:00,
2013-02-18 18:56:00,29.9,22.9,30.16,NW,315,2.0,4.0,75,0.00,,,0.00,0,Wunderground v.1.15,2013-02-18 23:56:00,
2013-02-18 19:01:00,29.5,22.2,30.16,NW,317,2.0,2.0,74,0.00,,,0.00,0,Wunderground v.1.15,2013-02-19 00:01:00,
2013-02-18 19:07:00,29.4,22.5,30.16,NW,309,3.0,5.0,75,0.00,,,0.00,0,Wunderground v.1.15,2013-02-19 00:07:00,
2013-02-18 19:13:00,29.3,23.0,30.16,NW,308,2.0,3.0,77,0.00,,,0.00,0,Wunderground v.1.15,2013-02-19 00:13:00,
2013-02-18 19:18:00,29.1,22.8,30.16,NW,309,1.0,3.0,77,0.00,,,0.00,0,Wunderground v.1.15,2013-02-19 00:18:00,
2013-02-18 19:24:00,28.9,22.3,30.15,North,360,1.0,2.0,76,0.00,,,0.00,0,Wunderground v.1.15,2013-02-19 00:24:00,
2013-02-18 19:29:00,28.7,22.4,30.15,NW,309,1.0,2.0,77,0.00,,,0.00,0,Wunderground v.1.15,2013-02-19 00:29:00,
2013-02-18 19:35:00,28.5,22.5,30.15,NW,309,1.0,1.0,78,0.00,,,0.00,0,Wunderground v.1.15,2013-02-19 00:35:00,
2013-02-18 19:41:00,28.3,22.3,30.15,WNW,299,1.0,1.0,78,0.00,,,0.00,0,Wunderground v.1.15,2013-02-19 00:41:00,
2013-02-18 19:47:00,28.1,22.4,30.15,NW,304,2.0,2.0,79,0.00,,,0.00,0,Wunderground v.1.15,2013-02-19 00:47:00,
2013-02-18 19:52:00,28.0,22.6,30.15,WNW,301,2.0,2.0,80,0.00,,,0.00,0,Wunderground v.1.15,2013-02-19 00:52:00,
2013-02-18 19:58:00,27.7,22.6,30.15,WNW,301,1.0,2.0,81,0.00,,,0.00,0,Wunderground v.1.15,2013-02-19 00:58:00,
2013-02-18 20:03:00,27.5,22.1,30.14,WNW,302,0.0,0.0,80,0.00,,,0.00,0,Wunderground v.1.15,2013-02-19 01:03:00,
2013-02-18 20:08:00,27.2,21.8,30.14,WNW,302,0.0,0.0,80,0.00,,,0.00,0,Wunderground v.1.15,2013-02-19 01:08:00,
2013-02-18 20:14:00,27.0,21.1,30.14,WNW,301,0.0,2.0,78,0.00,,,0.00,0,Wunderground v.1.15,2013-02-19 01:14:00,
2013-02-18 20:19:00,27.0,21.7,30.14,WNW,300,1.0,2.0,80,0.00,,,0.00,0,Wunderground v.1.15,2013-02-19 01:19:00,
2013-02-18 20:25:00,26.9,21.8,30.14,WNW,302,1.0,1.0,81,0.00,,,0.00,0,Wunderground v.1.15,2013-02-19 01:25:00,
2013-02-18 20:30:00,26.7,21.7,30.13,WNW,299,1.0,1.0,81,0.00,,,0.00,0,Wunderground v.1.15,2013-02-19 01:30:00,
2013-02-18 20:36:00,26.5,21.2,30.13,WNW,297,1.0,2.0,80,0.00,,,0.00,0,Wunderground v.1.15,2013-02-19 01:36:00,
2013-02-18 20:42:00,26.4,21.9,30.13,WNW,292,1.0,3.0,83,0.00,,,0.00,0,Wunderground v.1.15,2013-02-19 01:42:00,
2013-02-18 20:48:00,26.3,21.3,30.13,SW,236,2.0,4.0,81,0.00,,,0.00,0,Wunderground v.1.15,2013-02-19 01:48:00,
2013-02-18 20:54:00,26.3,21.8,30.13,SW,236,3.0,3.0,83,0.00,,,0.00,0,Wunderground v.1.15,2013-02-19 01:54:00,
2013-02-18 20:59:00,26.3,22.1,30.13,WSW,238,2.0,3.0,84,0.00,,,0.00,0,Wunderground v.1.15,2013-02-19 01:59:00,
2013-02-18 21:04:00,26.3,22.4,30.13,WSW,237,2.0,2.0,85,0.00,,,0.00,0,Wunderground v.1.15,2013-02-19 02:04:00,
2013-02-18 21:10:00,26.3,22.4,30.13,SW,234,1.0,1.0,85,0.00,,,0.00,0,Wunderground v.1.15,2013-02-19 02:10:00,
2013-02-18 21:15:00,26.1,21.4,30.13,WSW,237,1.0,3.0,82,0.00,,,0.00,0,Wunderground v.1.15,2013-02-19 02:15:00,
2013-02-18 21:20:00,26.0,21.3,30.13,WSW,238,2.0,3.0,82,0.00,,,0.00,0,Wunderground v.1.15,2013-02-19 02:20:00,
2013-02-18 21:26:00,25.9,21.7,30.12,SW,234,2.0,3.0,84,0.00,,,0.00,0,Wunderground v.1.15,2013-02-19 02:26:00,
2013-02-18 21:31:00,25.9,22.6,30.12,SW,236,2.0,4.0,87,0.00,,,0.00,0,Wunderground v.1.15,2013-02-19 02:31:00,
2013-02-18 21:36:00,25.8,22.7,30.12,WSW,237,3.0,4.0,88,0.00,,,0.00,0,Wunderground v.1.15,2013-02-19 02:36:00,
2013-02-18 21:42:00,25.6,22.5,30.12,WSW,238,2.0,2.0,88,0.00,,,0.00,0,Wunderground v.1.15,2013-02-19 02:42:00,
2013-02-18 21:47:00,25.5,22.2,30.12,SW,236,1.0,2.0,87,0.00,,,0.00,0,Wunderground v.1.15,2013-02-19 02:47:00,
2013-02-18 21:53:00,25.4,22.1,30.12,SW,235,1.0,2.0,87,0.00,,,0.00,0,Wunderground v.1.15,2013-02-19 02:53:00,
2013-02-18 21:59:00,25.2,21.9,30.12,SW,234,1.0,3.0,87,0.00,,,0.00,0,Wunderground v.1.15,2013-02-19 02:59:00,
2013-02-18 22:04:00,25.2,21.9,30.12,SW,235,1.0,2.0,87,0.00,,,0.00,0,Wunderground v.1.15,2013-02-19 03:04:00,
2013-02-18 22:09:00,25.2,21.6,30.11,WSW,237,1.0,2.0,86,0.00,,,0.00,0,Wunderground v.1.15,2013-02-19 03:09:00,
2013-02-18 22:15:00,25.2,21.9,30.11,WSW,237,0.0,1.0,87,0.00,,,0.00,0,Wunderground v.1.15,2013-02-19 03:15:00,
2013-02-18 22:21:00,25.3,21.7,30.11,WSW,237,0.0,0.0,86,0.00,,,0.00,0,Wunderground v.1.15,2013-02-19 03:21:00,
2013-02-18 22:26:00,25.3,21.4,30.11,SW,236,0.0,0.0,85,0.00,,,0.00,0,Wunderground v.1.15,2013-02-19 03:26:00,
2013-02-18 22:32:00,25.2,21.3,30.11,SW,235,0.0,0.0,85,0.00,,,0.00,0,Wunderground v.1.15,2013-02-19 03:32:00,
2013-02-18 22:38:00,25.2,21.3,30.11,SW,236,0.0,0.0,85,0.00,,,0.00,0,Wunderground v.1.15,2013-02-19 03:38:00,
2013-02-18 22:43:00,25.1,21.2,30.11,SW,235,0.0,0.0,85,0.00,,,0.00,0,Wunderground v.1.15,2013-02-19 03:43:00,
2013-02-18 22:48:00,25.1,21.5,30.11,WSW,238,0.0,0.0,86,0.00,,,0.00,0,Wunderground v.1.15,2013-02-19 03:48:00,
2013-02-18 22:54:00,25.0,21.7,30.10,WSW,237,0.0,0.0,87,0.00,,,0.00,0,Wunderground v.1.15,2013-02-19 03:54:00,
2013-02-18 23:00:00,24.8,21.8,30.10,WSW,237,0.0,0.0,88,0.00,,,0.00,0,Wunderground v.1.15,2013-02-19 04:00:00,
2013-02-18 23:06:00,24.6,21.6,30.10,North,360,0.0,0.0,88,0.00,,,0.00,0,Wunderground v.1.15,2013-02-19 04:06:00,
2013-02-18 23:12:00,24.4,21.1,30.10,SW,235,0.0,2.0,87,0.00,,,0.00,0,Wunderground v.1.15,2013-02-19 04:12:00,
2013-02-18 23:17:00,24.2,21.2,30.10,SW,236,1.0,2.0,88,0.00,,,0.00,0,Wunderground v.1.15,2013-02-19 04:17:00,
2013-02-18 23:23:00,24.1,21.1,30.09,SW,234,0.0,1.0,88,0.00,,,0.00,0,Wunderground v.1.15,2013-02-19 04:23:00,
2013-02-18 23:28:00,24.0,21.2,30.09,SW,235,0.0,2.0,89,0.00,,,0.00,0,Wunderground v.1.15,2013-02-19 04:28:00,
2013-02-18 23:34:00,23.8,20.8,30.09,WSW,237,0.0,0.0,88,0.00,,,0.00,0,Wunderground v.1.15,2013-02-19 04:34:00,
2013-02-18 23:40:00,23.7,20.7,30.08,SW,236,0.0,0.0,88,0.00,,,0.00,0,Wunderground v.1.15,2013-02-19 04:40:00,
2013-02-18 23:46:00,23.6,20.6,30.08,SW,234,0.0,0.0,88,0.00,,,0.00,0,Wunderground v.1.15,2013-02-19 04:46:00,
2013-02-18 23:52:00,23.6,20.6,30.07,SW,232,0.0,0.0,88,0.00,,,0.00,0,Wunderground v.1.15,2013-02-19 04:52:00,
2013-02-18 23:57:00,23.6,20.3,30.07,North,360,0.0,0.0,87,0.00,,,0.00,0,Wunderground v.1.15,2013-02-19 04:57:00,